createdAt,value
2018-04-27T00:01:14.967Z,94432.18
2018-04-27T00:03:42.651Z,94433.77
2018-04-27T00:06:10.267Z,94439.44
2018-04-27T00:08:37.918Z,94439.34
2018-04-27T00:11:05.538Z,94438.55
2018-04-27T00:13:33.159Z,94439.16
2018-04-27T00:16:00.831Z,94442.20
2018-04-27T00:18:28.477Z,94439.55
2018-04-27T00:20:56.120Z,94446.96
2018-04-27T00:23:23.788Z,94437.26
2018-04-27T00:25:51.426Z,94426.69
2018-04-27T00:28:19.033Z,94430.45
2018-04-27T00:30:46.652Z,94421.00
2018-04-27T00:33:14.375Z,94417.62
2018-04-27T00:35:41.973Z,94415.48
2018-04-27T00:38:09.639Z,94411.04
2018-04-27T00:40:37.239Z,94406.06
2018-04-27T00:43:04.961Z,94404.78
2018-04-27T00:45:32.675Z,94402.58
2018-04-27T00:48:00.481Z,94403.00
2018-04-27T00:50:28.172Z,94394.78
2018-04-27T00:53:07.900Z,94390.59
2018-04-27T00:55:35.575Z,94397.19
2018-04-27T00:58:03.178Z,94396.97
2018-04-27T01:00:30.764Z,94407.48
2018-04-27T01:02:58.398Z,94401.93
2018-04-27T01:05:25.981Z,94408.30
2018-04-27T01:07:53.644Z,94397.38
2018-04-27T01:10:21.230Z,94396.02
2018-04-27T01:12:48.869Z,94398.53
2018-04-27T01:15:16.478Z,94399.16
2018-04-27T01:17:44.140Z,94398.16
2018-04-27T01:20:11.776Z,94390.34
2018-04-27T01:22:39.580Z,94384.97
2018-04-27T01:25:07.265Z,94397.70
2018-04-27T01:27:35.716Z,94388.53
2018-04-27T01:30:03.392Z,94390.55
2018-04-27T01:32:30.982Z,94382.08
2018-04-27T01:34:58.612Z,94370.64
2018-04-27T01:37:26.254Z,94366.86
2018-04-27T01:39:53.901Z,94368.06
2018-04-27T01:42:21.506Z,94372.92
2018-04-27T01:44:49.170Z,94351.04
2018-04-27T01:47:16.785Z,94356.91
2018-04-27T01:49:44.436Z,94355.94
2018-04-27T01:52:12.178Z,94363.88
2018-04-27T01:54:39.898Z,94358.77
2018-04-27T01:57:07.613Z,94355.66
2018-04-27T01:59:35.367Z,94354.42
2018-04-27T02:02:03.021Z,94358.47
2018-04-27T02:04:30.889Z,94360.87
2018-04-27T02:06:58.505Z,94361.49
2018-04-27T02:09:26.124Z,94356.11
2018-04-27T02:11:53.730Z,94357.41
2018-04-27T02:14:21.460Z,94356.42
2018-04-27T02:16:49.110Z,94355.05
2018-04-27T02:19:16.780Z,94354.15
2018-04-27T02:21:44.498Z,94347.07
2018-04-27T02:24:12.085Z,94349.56
2018-04-27T02:26:39.733Z,94345.19
2018-04-27T02:29:07.332Z,94348.18
2018-04-27T02:31:34.978Z,94348.58
2018-04-27T02:34:02.661Z,94354.76
2018-04-27T02:36:30.346Z,94344.12
2018-04-27T02:38:58.044Z,94344.20
2018-04-27T02:41:25.648Z,94342.11
2018-04-27T02:43:53.285Z,94338.34
2018-04-27T02:46:20.920Z,94337.72
2018-04-27T02:48:48.512Z,94334.92
2018-04-27T02:51:16.212Z,94335.55
2018-04-27T02:53:43.915Z,94333.53
2018-04-27T02:56:11.535Z,94334.55
2018-04-27T02:58:39.153Z,94331.94
2018-04-27T03:01:06.809Z,94321.50
2018-04-27T03:03:34.426Z,94327.09
2018-04-27T03:06:02.011Z,94322.20
2018-04-27T03:08:29.656Z,94326.49
2018-04-27T03:10:57.268Z,94330.57
2018-04-27T03:13:24.892Z,94319.44
2018-04-27T03:15:52.461Z,94325.39
2018-04-27T03:18:20.110Z,94320.23
2018-04-27T03:20:47.734Z,94323.51
2018-04-27T03:23:15.388Z,94321.09
2018-04-27T03:25:43.152Z,94317.41
2018-04-27T03:28:10.806Z,94310.14
2018-04-27T03:30:38.425Z,94314.11
2018-04-27T03:33:06.038Z,94311.44
2018-04-27T03:35:33.680Z,94312.43
2018-04-27T03:38:01.308Z,94314.10
2018-04-27T03:40:28.960Z,94318.09
2018-04-27T03:42:56.639Z,94314.72
2018-04-27T03:45:24.296Z,94321.59
2018-04-27T03:47:51.940Z,94322.69
2018-04-27T03:50:19.694Z,94317.70
2018-04-27T03:52:47.273Z,94315.70
2018-04-27T03:55:15.000Z,94311.25
2018-04-27T03:57:42.693Z,94306.06
2018-04-27T04:00:22.061Z,94304.49
2018-04-27T04:03:01.483Z,94297.32
2018-04-27T04:05:29.178Z,94308.55
2018-04-27T04:07:56.845Z,94302.09
2018-04-27T04:10:24.440Z,94300.92
2018-04-27T04:12:52.036Z,94304.98
2018-04-27T04:15:19.681Z,94298.92
2018-04-27T04:17:47.322Z,94297.92
2018-04-27T04:20:15.032Z,94302.02
2018-04-27T04:22:42.681Z,94301.12
2018-04-27T04:25:10.303Z,94303.08
2018-04-27T04:27:37.964Z,94303.11
2018-04-27T04:30:05.632Z,94298.52
2018-04-27T04:32:33.238Z,94305.38
2018-04-27T04:35:00.930Z,94298.92
2018-04-27T04:37:28.555Z,94301.89
2018-04-27T04:39:56.385Z,94302.89
2018-04-27T04:42:24.007Z,94298.72
2018-04-27T04:44:51.602Z,94297.92
2018-04-27T04:47:19.473Z,94297.83
2018-04-27T04:49:47.178Z,94296.73
2018-04-27T04:52:14.855Z,94293.64
2018-04-27T04:54:42.564Z,94291.16
2018-04-27T04:57:10.178Z,94294.95
2018-04-27T04:59:37.790Z,94290.38
2018-04-27T05:02:05.434Z,94294.03
2018-04-27T05:04:33.070Z,94293.81
2018-04-27T05:07:00.735Z,94294.45
2018-04-27T05:09:28.339Z,94297.02
2018-04-27T05:11:55.969Z,94285.17
2018-04-27T05:14:23.610Z,94287.27
2018-04-27T05:16:51.231Z,94287.98
2018-04-27T05:19:18.944Z,94275.62
2018-04-27T05:21:46.632Z,94269.05
2018-04-27T05:24:14.269Z,94271.52
2018-04-27T05:26:41.884Z,94267.36
2018-04-27T05:29:09.542Z,94268.36
2018-04-27T05:31:37.194Z,94273.34
2018-04-27T05:34:04.841Z,94270.12
2018-04-27T05:36:32.535Z,94272.21
2018-04-27T05:39:00.138Z,94264.93
2018-04-27T05:41:27.838Z,94256.36
2018-04-27T05:43:55.605Z,94259.34
2018-04-27T05:46:23.349Z,94257.34
2018-04-27T05:48:51.021Z,94251.48
2018-04-27T05:51:18.716Z,94254.48
2018-04-27T05:53:46.343Z,94259.45
2018-04-27T05:56:14.062Z,94263.67
2018-04-27T05:58:41.756Z,94260.35
2018-04-27T06:01:09.377Z,94258.81
2018-04-27T06:03:49.184Z,94256.19
2018-04-27T06:06:17.048Z,94256.02
2018-04-27T06:08:45.486Z,94257.84
2018-04-27T06:11:13.912Z,94252.38
2018-04-27T06:13:41.572Z,94251.68
2018-04-27T06:16:09.272Z,94246.86
2018-04-27T06:18:36.897Z,94248.04
2018-04-27T06:21:04.974Z,94246.95
2018-04-27T06:23:32.837Z,94243.59
2018-04-27T06:26:00.584Z,94233.88
2018-04-27T06:28:28.365Z,94237.25
2018-04-27T06:30:56.136Z,94232.46
2018-04-27T06:33:24.000Z,94232.19
2018-04-27T06:35:51.679Z,94228.08
2018-04-27T06:38:19.336Z,94219.37
2018-04-27T06:40:46.967Z,94221.38
2018-04-27T06:43:14.716Z,94216.19
2018-04-27T06:45:42.515Z,94216.52
2018-04-27T06:48:10.937Z,94218.50
2018-04-27T06:50:38.829Z,94211.82
2018-04-27T06:53:06.698Z,94212.06
2018-04-27T06:55:34.514Z,94205.67
2018-04-27T06:58:02.269Z,94206.24
2018-04-27T07:00:30.423Z,94202.17
2018-04-27T07:02:58.605Z,94200.53
2018-04-27T07:05:26.485Z,94196.91
2018-04-27T07:07:54.261Z,94190.89
2018-04-27T07:10:22.367Z,94186.88
2018-04-27T07:12:50.075Z,94186.62
2018-04-27T07:15:17.826Z,94181.93
2018-04-27T07:17:45.480Z,94181.30
2018-04-27T07:20:13.168Z,94177.45
2018-04-27T07:22:40.812Z,94173.66
2018-04-27T07:25:08.657Z,94163.59
2018-04-27T07:27:36.295Z,94161.11
2018-04-27T07:30:04.220Z,94160.19
2018-04-27T07:32:31.885Z,94156.18
2018-04-27T07:34:59.498Z,94148.70
2018-04-27T07:37:27.303Z,94144.86
2018-04-27T07:39:54.915Z,94142.59
2018-04-27T07:42:22.596Z,94145.64
2018-04-27T07:44:50.281Z,94144.97
2018-04-27T07:47:17.996Z,94145.14
2018-04-27T07:49:45.649Z,94137.40
2018-04-27T07:52:13.332Z,94138.87
2018-04-27T07:54:41.000Z,94136.94
2018-04-27T07:57:08.749Z,94132.87
2018-04-27T07:59:36.486Z,94128.84
2018-04-27T08:02:04.170Z,94132.34
2018-04-27T08:04:31.898Z,94132.61
2018-04-27T08:06:59.654Z,94124.17
2018-04-27T08:09:27.330Z,94123.80
2018-04-27T08:11:55.010Z,94122.16
2018-04-27T08:14:22.738Z,94128.25
2018-04-27T08:16:50.444Z,94124.48
2018-04-27T08:19:18.136Z,94128.12
2018-04-27T08:21:46.596Z,94124.44
2018-04-27T08:24:14.348Z,94119.76
2018-04-27T08:26:42.008Z,94123.09
2018-04-27T08:29:09.764Z,94123.13
2018-04-27T08:31:37.375Z,94119.98
2018-04-27T08:34:05.053Z,94115.67
2018-04-27T08:36:32.708Z,94111.64
2018-04-27T08:39:00.529Z,94113.00
2018-04-27T08:41:29.304Z,94105.45
2018-04-27T08:43:57.208Z,94108.45
2018-04-27T08:46:25.110Z,94109.78
2018-04-27T08:48:52.790Z,94122.89
2018-04-27T08:51:20.587Z,94114.52
2018-04-27T08:53:48.272Z,94123.17
2018-04-27T08:56:16.508Z,94118.25
2018-04-27T08:58:44.204Z,94116.08
2018-04-27T09:01:12.025Z,94113.34
2018-04-27T09:03:39.990Z,94114.66
2018-04-27T09:06:07.610Z,94115.84
2018-04-27T09:08:35.402Z,94110.58
2018-04-27T09:11:03.050Z,94118.48
2018-04-27T09:13:32.061Z,94115.86
2018-04-27T09:15:59.855Z,94116.39
2018-04-27T09:18:27.637Z,94110.59
2018-04-27T09:20:55.680Z,94110.64
2018-04-27T09:23:25.405Z,94111.64
2018-04-27T09:25:53.871Z,94110.52
2018-04-27T09:28:21.740Z,94110.89
2018-04-27T09:30:49.734Z,94106.22
2018-04-27T09:33:17.407Z,94100.32
2018-04-27T09:35:45.042Z,94095.03
2018-04-27T09:38:12.793Z,94104.61
2018-04-27T09:40:40.584Z,94091.95
2018-04-27T09:43:08.315Z,94095.83
2018-04-27T09:45:35.960Z,94084.72
2018-04-27T09:48:03.735Z,94085.27
2018-04-27T09:50:31.630Z,94076.67
2018-04-27T09:52:59.395Z,94070.12
2018-04-27T09:55:27.026Z,94074.06
2018-04-27T09:57:54.635Z,94085.87
2018-04-27T10:00:22.372Z,94061.06
2018-04-27T10:02:50.040Z,94069.98
2018-04-27T10:05:17.726Z,94064.33
2018-04-27T10:07:45.368Z,94056.87
2018-04-27T10:10:13.026Z,94053.61
2018-04-27T10:12:41.570Z,94058.71
2018-04-27T10:15:09.267Z,94047.33
2018-04-27T10:17:36.924Z,94044.12
2018-04-27T10:20:04.607Z,94034.50
2018-04-27T10:22:32.345Z,94033.28
2018-04-27T10:25:00.027Z,94029.58
2018-04-27T10:27:27.740Z,94024.12
2018-04-27T10:29:56.635Z,94025.45
2018-04-27T10:32:24.325Z,94031.30
2018-04-27T10:34:51.966Z,94022.17
2018-04-27T10:37:19.675Z,94014.91
2018-04-27T10:39:47.307Z,94007.35
2018-04-27T10:42:15.057Z,94006.70
2018-04-27T10:44:42.758Z,94002.17
2018-04-27T10:47:10.500Z,93994.55
2018-04-27T10:49:38.206Z,93986.55
2018-04-27T10:52:05.965Z,93980.63
2018-04-27T10:54:33.688Z,93979.34
2018-04-27T10:57:02.328Z,93966.36
2018-04-27T10:59:30.411Z,93961.90
2018-04-27T11:01:58.070Z,93955.96
2018-04-27T11:04:25.779Z,93954.34
2018-04-27T11:06:53.495Z,93954.59
2018-04-27T11:09:21.428Z,93955.83
2018-04-27T11:11:49.403Z,93937.76
2018-04-27T11:14:17.121Z,93938.72
2018-04-27T11:16:45.587Z,93936.04
2018-04-27T11:19:12.794Z,93930.95
2018-04-27T11:21:40.860Z,93925.74
2018-04-27T11:24:08.533Z,93932.64
2018-04-27T11:26:37.020Z,93929.15
2018-04-27T11:29:04.621Z,93919.91
2018-04-27T11:31:32.343Z,93915.70
2018-04-27T11:34:00.059Z,93918.05
2018-04-27T11:36:27.865Z,93917.41
2018-04-27T11:38:55.504Z,93910.20
2018-04-27T11:41:23.169Z,93908.77
2018-04-27T11:43:50.850Z,93908.02
2018-04-27T11:46:18.515Z,93910.38
2018-04-27T11:48:46.545Z,93902.75
2018-04-27T11:51:14.242Z,93900.24
2018-04-27T11:53:42.206Z,93895.37
2018-04-27T11:56:10.643Z,93902.05
2018-04-27T11:58:38.968Z,93893.72
2018-04-27T12:01:06.974Z,93891.75
2018-04-27T12:03:34.821Z,93893.53
2018-04-27T12:06:02.670Z,93892.70
2018-04-27T12:08:30.558Z,93885.17
2018-04-27T12:10:58.211Z,93879.77
2018-04-27T12:13:26.079Z,93883.28
2018-04-27T12:15:53.804Z,93878.30
2018-04-27T12:18:21.749Z,93868.70
2018-04-27T12:20:49.456Z,93870.23
2018-04-27T12:23:17.096Z,93873.79
2018-04-27T12:25:45.213Z,93863.00
2018-04-27T12:28:12.922Z,93862.83
2018-04-27T12:30:42.013Z,93855.36
2018-04-27T12:33:10.005Z,93854.27
2018-04-27T12:35:38.422Z,93846.98
2018-04-27T12:38:06.616Z,93837.68
2018-04-27T12:40:34.462Z,93835.00
2018-04-27T12:43:02.598Z,93837.74
2018-04-27T12:45:30.297Z,93829.60
2018-04-27T12:47:58.071Z,93831.77
2018-04-27T12:50:25.727Z,93821.57
2018-04-27T12:52:54.322Z,93821.05
2018-04-27T12:55:22.409Z,93819.52
2018-04-27T12:57:50.492Z,93820.65
2018-04-27T13:00:18.128Z,93817.58
2018-04-27T13:02:45.983Z,93815.58
2018-04-27T13:05:14.136Z,93800.57
2018-04-27T13:07:42.098Z,93796.91
2018-04-27T13:10:10.131Z,93795.98
2018-04-27T13:12:37.861Z,93797.95
2018-04-27T13:15:05.635Z,93794.81
2018-04-27T13:17:33.393Z,93794.00
2018-04-27T13:20:01.877Z,93790.69
2018-04-27T13:22:29.674Z,93780.01
2018-04-27T13:24:57.495Z,93778.05
2018-04-27T13:27:25.356Z,93775.91
2018-04-27T13:29:53.047Z,93771.44
2018-04-27T13:32:20.796Z,93764.35
2018-04-27T13:34:49.217Z,93757.56
2018-04-27T13:37:17.252Z,93761.81
2018-04-27T13:39:45.301Z,93762.58
2018-04-27T13:42:13.826Z,93756.41
2018-04-27T13:44:41.637Z,93750.59
2018-04-27T13:47:10.456Z,93748.12
2018-04-27T13:49:38.136Z,93746.33
2018-04-27T13:52:05.977Z,93747.39
2018-04-27T13:54:34.364Z,93742.94
2018-04-27T13:57:02.132Z,93734.99
2018-04-27T13:59:29.803Z,93732.19
2018-04-27T14:01:57.661Z,93728.00
2018-04-27T14:04:25.427Z,93729.17
2018-04-27T14:06:53.189Z,93714.87
2018-04-27T14:09:21.160Z,93721.81
2018-04-27T14:11:48.848Z,93721.56
2018-04-27T14:14:16.776Z,93724.79
2018-04-27T14:16:44.659Z,93714.22
2018-04-27T14:19:13.629Z,93713.28
2018-04-27T14:21:41.332Z,93705.50
2018-04-27T14:24:09.094Z,93710.17
2018-04-27T14:26:36.801Z,93700.09
2018-04-27T14:29:04.816Z,93708.89
2018-04-27T14:31:32.671Z,93707.70
2018-04-27T14:34:00.537Z,93713.06
2018-04-27T14:36:28.215Z,93704.28
2018-04-27T14:38:55.802Z,93703.02
2018-04-27T14:41:23.436Z,93701.46
2018-04-27T14:43:51.134Z,93698.37
2018-04-27T14:46:18.794Z,93695.23
2018-04-27T14:48:46.628Z,93696.25
2018-04-27T14:51:14.360Z,93688.84
2018-04-27T14:53:41.976Z,93688.94
2018-04-27T14:56:09.615Z,93686.64
2018-04-27T14:58:37.371Z,93684.00
2018-04-27T15:01:05.348Z,93682.92
2018-04-27T15:03:33.058Z,93674.52
2018-04-27T15:06:00.807Z,93681.02
2018-04-27T15:08:29.074Z,93681.38
2018-04-27T15:10:56.803Z,93683.17
2018-04-27T15:13:24.747Z,93681.50
2018-04-27T15:15:52.986Z,93683.18
2018-04-27T15:18:20.702Z,93680.32
2018-04-27T15:20:48.371Z,93679.51
2018-04-27T15:23:16.209Z,93677.35
2018-04-27T15:25:44.011Z,93680.92
2018-04-27T15:28:11.641Z,93672.50
2018-04-27T15:30:39.318Z,93677.67
2018-04-27T15:33:06.989Z,93679.95
2018-04-27T15:35:34.629Z,93680.87
2018-04-27T15:38:03.147Z,93677.14
2018-04-27T15:40:31.655Z,93674.98
2018-04-27T15:42:59.361Z,93677.97
2018-04-27T15:45:27.751Z,93677.21
2018-04-27T15:47:55.415Z,93687.06
2018-04-27T15:50:23.099Z,93670.85
2018-04-27T15:52:50.741Z,93681.55
2018-04-27T15:55:18.436Z,93683.06
2018-04-27T15:57:46.291Z,93676.77
2018-04-27T16:00:13.931Z,93676.26
2018-04-27T16:02:42.636Z,93673.98
2018-04-27T16:05:10.323Z,93678.56
2018-04-27T16:07:38.162Z,93677.00
2018-04-27T16:10:05.917Z,93683.39
2018-04-27T16:12:34.126Z,93687.34
2018-04-27T16:15:02.154Z,93691.30
2018-04-27T16:17:29.943Z,93700.07
2018-04-27T16:19:58.189Z,93696.28
2018-04-27T16:22:25.862Z,93701.45
2018-04-27T16:24:53.646Z,93698.78
2018-04-27T16:27:21.269Z,93702.64
2018-04-27T16:29:49.170Z,93705.69
2018-04-27T16:32:16.865Z,93702.12
2018-04-27T16:34:44.527Z,93705.97
2018-04-27T16:37:12.266Z,93703.29
2018-04-27T16:39:40.132Z,93707.19
2018-04-27T16:42:08.116Z,93708.66
2018-04-27T16:44:35.869Z,93710.70
2018-04-27T16:47:03.738Z,93706.14
2018-04-27T16:49:31.823Z,93708.39
2018-04-27T16:51:59.448Z,93709.41
2018-04-27T16:54:27.991Z,93706.13
2018-04-27T16:56:56.605Z,93710.50
2018-04-27T16:59:24.900Z,93715.48
2018-04-27T17:01:52.782Z,93711.82
2018-04-27T17:04:20.806Z,93722.16
2018-04-27T17:06:48.618Z,93720.64
2018-04-27T17:09:16.472Z,93723.95
2018-04-27T17:11:44.908Z,93729.95
2018-04-27T17:14:12.849Z,93731.27
2018-04-27T17:16:40.702Z,93733.02
2018-04-27T17:19:08.572Z,93740.20
2018-04-27T17:21:36.784Z,93739.61
2018-04-27T17:24:04.507Z,93743.69
2018-04-27T17:26:32.370Z,93746.45
2018-04-27T17:29:00.191Z,93751.28
2018-04-27T17:31:28.098Z,93755.81
2018-04-27T17:33:55.751Z,93759.78
2018-04-27T17:36:23.534Z,93757.20
2018-04-27T17:38:51.219Z,93757.89
2018-04-27T17:41:19.217Z,93759.47
2018-04-27T17:43:46.891Z,93761.08
2018-04-27T17:46:14.591Z,93760.45
2018-04-27T17:48:42.565Z,93759.91
2018-04-27T17:51:11.233Z,93771.33
2018-04-27T17:53:39.004Z,93774.49
2018-04-27T17:56:07.094Z,93771.35
2018-04-27T17:58:34.957Z,93774.47
2018-04-27T18:01:03.430Z,93774.73
2018-04-27T18:03:31.261Z,93790.59
2018-04-27T18:05:58.949Z,93784.80
2018-04-27T18:08:26.594Z,93793.77
2018-04-27T18:10:55.892Z,93795.86
2018-04-27T18:13:24.801Z,93796.11
2018-04-27T18:15:52.699Z,93803.44
2018-04-27T18:18:20.677Z,93809.47
2018-04-27T18:20:48.525Z,93806.81
2018-04-27T18:23:16.291Z,93815.61
2018-04-27T18:25:44.462Z,93808.80
2018-04-27T18:28:12.169Z,93818.50
2018-04-27T18:30:39.995Z,93821.89
2018-04-27T18:33:07.752Z,93816.56
2018-04-27T18:35:36.624Z,93818.61
2018-04-27T18:38:05.915Z,93822.19
2018-04-27T18:40:33.814Z,93820.66
2018-04-27T18:43:01.588Z,93819.72
2018-04-27T18:45:29.354Z,93819.73
2018-04-27T18:47:57.316Z,93815.38
2018-04-27T18:50:26.955Z,93830.01
2018-04-27T18:52:55.729Z,93824.73
2018-04-27T18:55:24.316Z,93830.98
2018-04-27T18:57:52.002Z,93838.18
2018-04-27T19:00:19.871Z,93837.45
2018-04-27T19:02:48.002Z,93847.09
2018-04-27T19:05:16.660Z,93851.86
2018-04-27T19:07:44.602Z,93845.20
2018-04-27T19:10:13.464Z,93861.45
2018-04-27T19:12:41.334Z,93869.58
2018-04-27T19:15:09.040Z,93867.73
2018-04-27T19:17:37.656Z,93870.31
2018-04-27T19:20:05.503Z,93871.88
2018-04-27T19:22:34.287Z,93872.72
2018-04-27T19:25:02.764Z,93873.66
2018-04-27T19:27:30.501Z,93876.78
2018-04-27T19:29:58.369Z,93885.74
2018-04-27T19:32:26.216Z,93886.93
2018-04-27T19:34:53.948Z,93878.98
2018-04-27T19:37:21.710Z,93882.14
2018-04-27T19:39:49.445Z,93886.23
2018-04-27T19:42:17.197Z,93895.70
2018-04-27T19:44:44.872Z,93887.95
2018-04-27T19:47:12.607Z,93892.63
2018-04-27T19:49:40.314Z,93891.98
2018-04-27T19:52:08.029Z,93892.41
2018-04-27T19:54:35.723Z,93893.81
2018-04-27T19:57:03.536Z,93897.17
2018-04-27T19:59:31.326Z,93897.36
2018-04-27T20:01:59.025Z,93893.02
2018-04-27T20:04:26.785Z,93897.32
2018-04-27T20:06:55.336Z,93902.74
2018-04-27T20:09:23.152Z,93904.52
2018-04-27T20:11:51.010Z,93913.88
2018-04-27T20:14:36.795Z,93907.05
2018-04-27T20:17:05.246Z,93904.64
2018-04-27T20:19:38.403Z,93911.48
2018-04-27T20:22:10.927Z,93918.61
2018-04-27T20:24:40.280Z,93913.67
2018-04-27T20:27:09.375Z,93921.49
2018-04-27T20:29:37.537Z,93923.98
2018-04-27T20:32:05.400Z,93916.36
2018-04-27T20:34:33.396Z,93921.34
2018-04-27T20:37:01.180Z,93921.94
2018-04-27T20:39:29.119Z,93918.48
2018-04-27T20:41:57.225Z,93918.91
2018-04-27T20:44:25.397Z,93918.43
2018-04-27T20:46:53.233Z,93919.41
2018-04-27T20:49:21.101Z,93918.23
2018-04-27T20:51:51.538Z,93916.77
2018-04-27T20:54:19.704Z,93919.31
2018-04-27T20:56:47.841Z,93917.44
2018-04-27T20:59:15.734Z,93920.11
2018-04-27T21:01:43.414Z,93917.73
2018-04-27T21:04:12.096Z,93926.78
2018-04-27T21:06:40.053Z,93932.55
2018-04-27T21:09:10.527Z,93936.21
2018-04-27T21:11:39.093Z,93934.18
2018-04-27T21:14:07.137Z,93926.87
2018-04-27T21:16:35.017Z,93918.67
2018-04-27T21:19:03.351Z,93917.77
2018-04-27T21:21:31.070Z,93914.55
2018-04-27T21:23:58.818Z,93913.75
2018-04-27T21:26:27.514Z,93917.77
2018-04-27T21:28:56.108Z,93910.48
2018-04-27T21:31:23.825Z,93920.49
2018-04-27T21:33:54.650Z,93920.21
2018-04-27T21:36:25.473Z,93931.75
2018-04-27T21:42:06.924Z,93934.63
2018-04-27T21:44:37.460Z,93937.32
2018-04-27T21:50:06.823Z,93935.91
2018-04-27T21:52:35.364Z,93945.91
2018-04-27T21:55:03.952Z,93942.37
2018-04-27T21:57:35.677Z,93945.69
2018-04-27T22:00:25.942Z,93939.83
2018-04-27T22:02:57.351Z,93945.88
2018-04-27T22:08:27.778Z,93942.79
2018-04-27T22:10:55.630Z,93948.04
2018-04-27T22:13:24.774Z,93954.83
2018-04-27T22:15:52.481Z,93955.59
2018-04-27T22:18:20.369Z,93958.03
2018-04-27T22:20:49.260Z,93957.36
2018-04-27T22:23:21.759Z,93961.70
2018-04-27T22:25:49.627Z,93964.03
2018-04-27T22:28:34.524Z,93971.02
2018-04-27T22:31:02.327Z,93968.13
2018-04-27T22:33:34.839Z,93967.03
2018-04-27T22:36:04.749Z,93967.45
2018-04-27T22:38:37.180Z,93968.38
2018-04-27T22:41:12.460Z,93965.23
2018-04-27T22:43:40.154Z,93965.42
2018-04-27T22:46:09.844Z,93965.73
2018-04-27T22:48:41.751Z,93964.90
2018-04-27T22:51:22.255Z,93967.05
2018-04-27T22:54:17.600Z,93961.55
2018-04-27T22:56:45.526Z,93959.22
2018-04-27T22:59:13.413Z,93967.33
2018-04-27T23:01:41.261Z,93967.58
2018-04-27T23:04:09.037Z,93976.22
2018-04-27T23:06:36.886Z,93973.39
2018-04-27T23:09:04.709Z,93972.77
2018-04-27T23:11:33.165Z,93962.32
2018-04-27T23:14:03.778Z,93964.74
2018-04-27T23:16:31.551Z,93965.92
2018-04-27T23:18:59.313Z,93963.40
2018-04-27T23:24:25.057Z,93953.95
2018-04-27T23:26:53.532Z,93957.23
2018-04-27T23:29:21.250Z,93951.86
2018-04-27T23:31:48.918Z,93954.55
2018-04-27T23:34:16.706Z,93958.64
2018-04-27T23:36:44.420Z,93960.94
2018-04-27T23:39:12.243Z,93960.45
2018-04-27T23:41:40.533Z,93959.00
2018-04-27T23:44:08.251Z,93960.45
2018-04-27T23:46:35.923Z,93960.40
2018-04-27T23:49:03.650Z,93961.89
2018-04-27T23:51:31.385Z,93966.41
2018-04-27T23:54:02.843Z,93960.02
2018-04-27T23:56:31.384Z,93961.78
2018-04-27T23:58:59.084Z,93965.17
